createdAt,value
2022-11-12T00:00:21.461Z,0.04
2022-11-12T00:02:51.876Z,0.04
2022-11-12T00:05:22.793Z,0.04
2022-11-12T00:07:53.337Z,0.04
2022-11-12T00:10:23.951Z,0.04
2022-11-12T00:12:54.625Z,0.04
2022-11-12T00:15:24.674Z,0.04
2022-11-12T00:17:55.408Z,0.04
2022-11-12T00:20:25.579Z,0.04
2022-11-12T00:22:55.974Z,0.04
2022-11-12T00:25:26.374Z,0.04
2022-11-12T00:27:57.120Z,0.04
2022-11-12T00:30:27.692Z,0.04
2022-11-12T00:32:58.318Z,0.04
2022-11-12T00:35:28.523Z,0.04
2022-11-12T00:37:59.199Z,0.04
2022-11-12T00:40:29.693Z,0.05
2022-11-12T00:43:00.111Z,0.05
2022-11-12T00:45:30.238Z,0.04
2022-11-12T00:48:00.674Z,0.05
2022-11-12T00:50:31.047Z,0.05
2022-11-12T00:53:01.778Z,0.05
2022-11-12T00:55:32.265Z,0.05
2022-11-12T00:58:02.349Z,0.05
2022-11-12T01:00:33.089Z,0.05
2022-11-12T01:03:03.446Z,0.05
2022-11-12T01:05:34.193Z,0.05
2022-11-12T01:08:04.620Z,0.05
2022-11-12T01:10:35.078Z,0.04
2022-11-12T01:13:05.178Z,0.05
2022-11-12T01:15:35.892Z,0.04
2022-11-12T01:18:06.338Z,0.04
2022-11-12T01:20:36.730Z,0.04
2022-11-12T01:23:07.449Z,0.04
2022-11-12T01:25:37.988Z,0.04
2022-11-12T01:28:08.364Z,0.04
2022-11-12T01:30:38.825Z,0.04
2022-11-12T01:33:09.543Z,0.04
2022-11-12T01:35:40.016Z,0.04
2022-11-12T01:38:10.452Z,0.04
2022-11-12T01:40:40.849Z,0.04
2022-11-12T01:43:11.292Z,0.04
2022-11-12T01:45:42.021Z,0.04
2022-11-12T01:48:12.734Z,0.04
2022-11-12T01:50:43.191Z,0.04
2022-11-12T01:53:13.899Z,0.04
2022-11-12T01:55:44.640Z,0.04
2022-11-12T01:58:15.016Z,0.04
2022-11-12T02:00:45.870Z,0.04
2022-11-12T02:03:16.470Z,0.04
2022-11-12T02:05:47.219Z,0.04
2022-11-12T02:08:17.604Z,0.04
2022-11-12T02:10:48.433Z,0.04
2022-11-12T02:13:19.073Z,0.04
2022-11-12T02:15:49.598Z,0.04
2022-11-12T02:18:20.250Z,0.04
2022-11-12T02:20:50.357Z,0.04
2022-11-12T02:23:21.072Z,0.04
2022-11-12T02:25:51.538Z,0.04
2022-11-12T02:28:22.353Z,0.04
2022-11-12T02:30:53.100Z,0.04
2022-11-12T02:33:23.651Z,0.04
2022-11-12T02:35:54.133Z,0.04
2022-11-12T02:38:24.895Z,0.04
2022-11-12T02:40:55.018Z,0.04
2022-11-12T02:43:25.383Z,0.04
2022-11-12T02:45:56.198Z,0.04
2022-11-12T02:48:26.997Z,0.04
2022-11-12T02:50:57.379Z,0.04
2022-11-12T02:53:28.129Z,0.04
2022-11-12T02:55:58.939Z,0.04
2022-11-12T02:58:29.639Z,0.04
2022-11-12T03:00:59.931Z,0.04
2022-11-12T03:03:30.710Z,0.04
2022-11-12T03:06:01.392Z,0.04
2022-11-12T03:08:31.847Z,0.04
2022-11-12T03:11:02.150Z,0.04
2022-11-12T03:13:32.424Z,0.04
2022-11-12T03:16:02.829Z,0.04
2022-11-12T03:18:33.562Z,0.04
2022-11-12T03:21:04.052Z,0.04
2022-11-12T03:23:34.523Z,0.04
2022-11-12T03:26:04.684Z,0.04
2022-11-12T03:28:35.189Z,0.04
2022-11-12T03:31:05.908Z,0.04
2022-11-12T03:33:36.118Z,0.04
2022-11-12T03:36:06.156Z,0.04
2022-11-12T03:38:36.677Z,0.04
2022-11-12T03:41:07.402Z,0.04
2022-11-12T03:43:37.588Z,0.04
2022-11-12T03:46:08.008Z,0.04
2022-11-12T03:48:38.466Z,0.04
2022-11-12T03:51:09.240Z,0.04
2022-11-12T03:53:39.987Z,0.04
2022-11-12T03:56:10.410Z,0.04
2022-11-12T03:58:41.224Z,0.04
2022-11-12T04:01:11.723Z,0.04
2022-11-12T04:03:42.348Z,0.04
2022-11-12T04:06:12.567Z,0.04
2022-11-12T04:08:42.811Z,0.04
2022-11-12T04:11:13.439Z,0.04
2022-11-12T04:13:44.011Z,0.04
2022-11-12T04:16:14.071Z,0.04
2022-11-12T04:18:44.832Z,0.04
2022-11-12T04:21:15.332Z,0.04
2022-11-12T04:23:45.886Z,0.04
2022-11-12T04:26:16.630Z,0.04
2022-11-12T04:28:47.168Z,0.04
2022-11-12T04:31:17.589Z,0.04
2022-11-12T04:33:48.205Z,0.04
2022-11-12T04:36:18.996Z,0.04
2022-11-12T04:38:49.509Z,0.04
2022-11-12T04:41:19.965Z,0.04
2022-11-12T04:43:50.487Z,0.04
2022-11-12T04:46:21.216Z,0.04
2022-11-12T04:48:51.795Z,0.04
2022-11-12T04:51:22.582Z,0.04
2022-11-12T04:53:53.360Z,0.04
2022-11-12T04:56:23.447Z,0.04
2022-11-12T04:58:53.825Z,0.04
2022-11-12T05:01:24.087Z,0.04
2022-11-12T05:03:54.838Z,0.04
2022-11-12T05:06:25.445Z,0.04
2022-11-12T05:08:55.618Z,0.04
2022-11-12T05:11:26.055Z,0.04
2022-11-12T05:13:56.751Z,0.04
2022-11-12T05:16:27.212Z,0.04
2022-11-12T05:18:58.018Z,0.04
2022-11-12T05:21:28.853Z,0.04
2022-11-12T05:23:59.729Z,0.04
2022-11-12T05:26:30.133Z,0.04
2022-11-12T05:29:02.981Z,0.04
2022-11-12T05:31:31.445Z,0.04
2022-11-12T05:34:01.778Z,0.04
2022-11-12T05:36:32.531Z,0.04
2022-11-12T05:39:03.428Z,0.04
2022-11-12T05:41:58.035Z,0.04
2022-11-12T05:44:04.359Z,0.04
2022-11-12T05:46:34.596Z,0.04
2022-11-12T05:49:04.827Z,0.04
2022-11-12T05:51:35.302Z,0.04
2022-11-12T05:54:05.839Z,0.04
2022-11-12T05:56:36.676Z,0.04
2022-11-12T05:59:06.951Z,0.04
2022-11-12T06:01:37.443Z,0.04
2022-11-12T06:04:08.112Z,0.04
2022-11-12T06:06:38.825Z,0.04
2022-11-12T06:09:09.044Z,0.04
2022-11-12T06:11:39.280Z,0.04
2022-11-12T06:14:09.815Z,0.04
2022-11-12T06:16:40.332Z,0.04
2022-11-12T06:19:10.975Z,0.04
2022-11-12T06:21:41.699Z,0.04
2022-11-12T06:24:11.711Z,0.04
2022-11-12T06:26:41.926Z,0.04
2022-11-12T06:29:12.523Z,0.04
2022-11-12T06:31:43.338Z,0.04
2022-11-12T06:34:13.836Z,0.04
2022-11-12T06:36:44.034Z,0.04
2022-11-12T06:39:14.057Z,0.04
2022-11-12T06:41:44.895Z,0.04
2022-11-12T06:44:19.254Z,0.04
2022-11-12T06:46:46.020Z,0.04
2022-11-12T06:49:16.851Z,0.04
2022-11-12T06:51:47.412Z,0.04
2022-11-12T06:54:18.177Z,0.04
2022-11-12T06:56:48.670Z,0.04
2022-11-12T06:59:19.052Z,0.04
2022-11-12T07:01:49.544Z,0.04
2022-11-12T07:04:19.793Z,0.04
2022-11-12T07:06:50.623Z,0.04
2022-11-12T07:09:21.453Z,0.04
2022-11-12T07:11:51.981Z,0.04
2022-11-12T07:14:22.829Z,0.04
2022-11-12T07:16:53.679Z,0.04
2022-11-12T07:19:23.658Z,0.04
2022-11-12T07:21:53.687Z,0.04
2022-11-12T07:24:24.182Z,0.04
2022-11-12T07:26:54.203Z,0.04
2022-11-12T07:29:42.799Z,0.04
2022-11-12T07:31:55.587Z,0.04
2022-11-12T07:34:26.154Z,0.04
2022-11-12T07:36:56.670Z,0.04
2022-11-12T07:39:26.996Z,0.05
2022-11-12T07:41:57.501Z,0.05
2022-11-12T07:44:28.031Z,0.05
2022-11-12T07:46:58.978Z,0.05
2022-11-12T07:49:29.106Z,0.05
2022-11-12T07:51:59.687Z,0.05
2022-11-12T07:54:29.956Z,0.05
2022-11-12T07:57:00.485Z,0.05
2022-11-12T07:59:31.426Z,0.05
2022-11-12T08:02:01.660Z,0.05
2022-11-12T08:04:32.471Z,0.04
2022-11-12T08:07:03.035Z,0.04
2022-11-12T08:09:33.490Z,0.05
2022-11-12T08:12:04.021Z,0.05
2022-11-12T08:14:34.516Z,0.06
2022-11-12T08:17:05.120Z,0.06
2022-11-12T08:19:35.958Z,0.05
2022-11-12T08:22:06.189Z,0.06
2022-11-12T08:24:36.508Z,0.06
2022-11-12T08:27:07.047Z,0.06
2022-11-12T08:29:37.665Z,0.06
2022-11-12T08:32:07.725Z,0.06
2022-11-12T08:34:38.282Z,0.07
2022-11-12T08:37:08.514Z,0.07
2022-11-12T08:39:39.410Z,0.07
2022-11-12T08:42:09.310Z,0.07
2022-11-12T08:44:40.158Z,0.07
2022-11-12T08:47:10.303Z,0.07
2022-11-12T08:49:46.672Z,0.06
2022-11-12T08:52:11.002Z,0.06
2022-11-12T08:54:41.107Z,0.06
2022-11-12T08:57:11.674Z,0.06
2022-11-12T08:59:42.500Z,0.06
2022-11-12T09:02:12.719Z,0.06
2022-11-12T09:04:43.147Z,0.07
2022-11-12T09:07:43.321Z,0.07
2022-11-12T09:09:43.900Z,0.07
2022-11-12T09:12:19.274Z,0.07
2022-11-12T09:14:44.773Z,0.08
2022-11-12T09:17:14.958Z,0.08
2022-11-12T09:19:45.727Z,0.07
2022-11-12T09:22:16.422Z,0.08
2022-11-12T09:24:47.135Z,0.09
2022-11-12T09:27:17.365Z,0.09
2022-11-12T09:29:48.152Z,0.09
2022-11-12T09:32:18.203Z,0.09
2022-11-12T09:34:48.868Z,0.09
2022-11-12T09:37:19.574Z,0.09
2022-11-12T09:39:50.056Z,0.1
2022-11-12T09:42:20.134Z,0.09
2022-11-12T09:44:50.314Z,0.09
2022-11-12T09:47:20.982Z,0.09
2022-11-12T09:49:51.546Z,0.08
2022-11-12T09:52:22.179Z,0.08
2022-11-12T09:54:52.396Z,0.07
2022-11-12T09:57:22.556Z,0.08
2022-11-12T09:59:52.549Z,0.08
2022-11-12T10:02:22.702Z,0.09
2022-11-12T10:04:52.767Z,0.09
2022-11-12T10:07:23.325Z,0.1
2022-11-12T10:09:53.969Z,0.1
2022-11-12T10:12:23.979Z,0.11
2022-11-12T10:14:54.035Z,0.1
2022-11-12T10:17:24.702Z,0.11
2022-11-12T10:19:55.247Z,0.11
2022-11-12T10:22:25.809Z,0.11
2022-11-12T10:24:56.193Z,0.1
2022-11-12T10:27:26.519Z,0.09
2022-11-12T10:29:57.342Z,0.09
2022-11-12T10:32:28.103Z,0.1
2022-11-12T10:34:58.176Z,0.11
2022-11-12T10:37:28.564Z,0.11
2022-11-12T10:39:59.231Z,0.1
2022-11-12T10:42:29.360Z,0.1
2022-11-12T10:44:59.414Z,0.09
2022-11-12T10:47:29.722Z,0.1
2022-11-12T10:49:59.884Z,0.11
2022-11-12T10:52:30.264Z,0.1
2022-11-12T10:55:00.608Z,0.1
2022-11-12T10:57:30.837Z,0.11
2022-11-12T11:00:01.413Z,0.12
2022-11-12T11:02:32.319Z,0.13
2022-11-12T11:05:02.650Z,0.12
2022-11-12T11:07:33.411Z,0.12
2022-11-12T11:10:04.006Z,0.11
2022-11-12T11:12:34.646Z,0.11
2022-11-12T11:15:05.463Z,0.11
2022-11-12T11:17:35.710Z,0.13
2022-11-12T11:20:06.295Z,0.14
2022-11-12T11:22:37.031Z,0.12
2022-11-12T11:25:07.211Z,0.11
2022-11-12T11:27:37.536Z,0.11
2022-11-12T11:30:07.785Z,0.1
2022-11-12T11:32:38.431Z,0.11
2022-11-12T11:35:08.906Z,0.13
2022-11-12T11:37:38.934Z,0.12
2022-11-12T11:40:09.271Z,0.1
2022-11-12T11:42:39.997Z,0.11
2022-11-12T11:45:10.835Z,0.1
2022-11-12T11:47:59.946Z,0.1
2022-11-12T11:50:11.847Z,0.1
2022-11-12T11:52:42.459Z,0.12
2022-11-12T11:55:12.920Z,0.13
2022-11-12T11:57:43.197Z,0.11
2022-11-12T12:00:13.400Z,0.12
2022-11-12T12:02:43.577Z,0.13
2022-11-12T12:05:13.819Z,0.13
2022-11-12T12:07:44.921Z,0.12
2022-11-12T12:10:15.227Z,0.13
2022-11-12T12:12:45.453Z,0.11
2022-11-12T12:15:15.787Z,0.1
2022-11-12T12:17:46.357Z,0.1
2022-11-12T12:20:16.964Z,0.11
2022-11-12T12:22:47.462Z,0.09
2022-11-12T12:25:17.964Z,0.1
2022-11-12T12:27:48.497Z,0.12
2022-11-12T12:30:18.779Z,0.13
2022-11-12T12:32:49.171Z,0.11
2022-11-12T12:35:19.375Z,0.11
2022-11-12T12:37:49.884Z,0.1
2022-11-12T12:40:20.088Z,0.1
2022-11-12T12:42:50.591Z,0.09
2022-11-12T12:45:21.089Z,0.09
2022-11-12T12:47:51.794Z,0.09
2022-11-12T12:50:22.279Z,0.1
2022-11-12T12:52:52.510Z,0.09
2022-11-12T12:55:22.807Z,0.08
2022-11-12T12:57:52.856Z,0.09
2022-11-12T13:00:23.365Z,0.09
2022-11-12T13:02:53.823Z,0.08
2022-11-12T13:05:24.016Z,0.07
2022-11-12T13:07:54.465Z,0.08
2022-11-12T13:10:24.971Z,0.08
2022-11-12T13:12:55.414Z,0.09
2022-11-12T13:15:25.888Z,0.08
2022-11-12T13:17:56.450Z,0.09
2022-11-12T13:20:26.891Z,0.09
2022-11-12T13:22:57.011Z,0.09
2022-11-12T13:25:27.184Z,0.1
2022-11-12T13:27:57.922Z,0.11
2022-11-12T13:30:28.422Z,0.09
2022-11-12T13:32:58.520Z,0.09
2022-11-12T13:35:28.970Z,0.09
2022-11-12T13:37:59.796Z,0.1
2022-11-12T13:40:30.179Z,0.09
2022-11-12T13:43:00.682Z,0.1
2022-11-12T13:45:31.126Z,0.11
2022-11-12T13:48:01.595Z,0.13
2022-11-12T13:50:36.437Z,0.12
2022-11-12T13:53:02.850Z,0.14
2022-11-12T13:55:33.275Z,0.14
2022-11-12T13:58:03.664Z,0.13
2022-11-12T14:00:34.165Z,0.12
2022-11-12T14:03:04.551Z,0.13
2022-11-12T14:05:34.988Z,0.14
2022-11-12T14:08:05.548Z,0.14
2022-11-12T14:10:35.927Z,0.12
2022-11-12T14:13:06.353Z,0.12
2022-11-12T14:15:36.904Z,0.12
2022-11-12T14:18:07.248Z,0.13
2022-11-12T14:20:37.718Z,0.12
2022-11-12T14:23:08.180Z,0.13
2022-11-12T14:25:38.596Z,0.13
2022-11-12T14:28:09.043Z,0.12
2022-11-12T14:30:39.217Z,0.13
2022-11-12T14:33:09.618Z,0.14
2022-11-12T14:35:40.066Z,0.13
2022-11-12T14:38:10.663Z,0.14
2022-11-12T14:40:41.259Z,0.14
2022-11-12T14:43:17.096Z,0.12
2022-11-12T14:45:41.949Z,0.11
2022-11-12T14:48:12.343Z,0.11
2022-11-12T14:50:47.942Z,0.12
2022-11-12T14:53:13.447Z,0.13
2022-11-12T14:55:43.916Z,0.14
2022-11-12T14:58:14.099Z,0.14
2022-11-12T15:00:44.629Z,0.12
2022-11-12T15:03:15.037Z,0.09
2022-11-12T15:05:45.416Z,0.1
2022-11-12T15:08:15.946Z,0.11
2022-11-12T15:10:46.705Z,0.11
2022-11-12T15:13:17.082Z,0.11
2022-11-12T15:15:47.726Z,0.13
2022-11-12T15:18:17.745Z,0.13
2022-11-12T15:20:47.843Z,0.12
2022-11-12T15:23:18.615Z,0.12
2022-11-12T15:25:49.361Z,0.12
2022-11-12T15:28:20.075Z,0.12
2022-11-12T15:30:50.313Z,0.11
2022-11-12T15:33:20.798Z,0.09
2022-11-12T15:35:51.278Z,0.07
2022-11-12T15:38:21.787Z,0.07
2022-11-12T15:40:57.043Z,0.07
2022-11-12T15:43:22.262Z,0.05
2022-11-12T15:45:52.299Z,0.05
2022-11-12T15:48:22.513Z,0.05
2022-11-12T15:50:52.803Z,0.05
2022-11-12T15:53:23.255Z,0.05
2022-11-12T15:55:53.960Z,0.05
2022-11-12T15:58:24.517Z,0.05
2022-11-12T16:00:55.445Z,0.06
2022-11-12T16:03:26.346Z,0.06
2022-11-12T16:05:56.509Z,0.06
2022-11-12T16:08:26.746Z,0.06
2022-11-12T16:10:57.553Z,0.06
2022-11-12T16:13:28.804Z,0.06
2022-11-12T16:15:59.216Z,0.07
2022-11-12T16:18:29.980Z,0.07
2022-11-12T16:21:00.591Z,0.07
2022-11-12T16:23:31.035Z,0.07
2022-11-12T16:26:02.907Z,0.07
2022-11-12T16:28:32.098Z,0.06
2022-11-12T16:31:02.610Z,0.06
2022-11-12T16:33:33.019Z,0.06
2022-11-12T16:36:03.229Z,0.06
2022-11-12T16:38:33.426Z,0.05
2022-11-12T16:41:03.988Z,0.05
2022-11-12T16:43:34.442Z,0.05
2022-11-12T16:46:04.926Z,0.05
2022-11-12T16:48:34.942Z,0.05
2022-11-12T16:51:05.325Z,0.05
2022-11-12T16:53:35.281Z,0.05
2022-11-12T16:56:05.809Z,0.05
2022-11-12T16:58:36.156Z,0.05
2022-11-12T17:01:06.681Z,0.05
2022-11-12T17:03:37.508Z,0.06
2022-11-12T17:06:07.750Z,0.05
2022-11-12T17:08:38.636Z,0.05
2022-11-12T17:11:09.443Z,0.06
2022-11-12T17:13:39.743Z,0.06
2022-11-12T17:16:09.971Z,0.05
2022-11-12T17:18:40.588Z,0.05
2022-11-12T17:21:11.326Z,0.04
2022-11-12T17:23:41.519Z,0.04
2022-11-12T17:26:11.567Z,0.04
2022-11-12T17:28:42.415Z,0.04
2022-11-12T17:31:12.659Z,0.04
2022-11-12T17:33:43.084Z,0.05
2022-11-12T17:36:13.902Z,0.05
2022-11-12T17:38:44.525Z,0.05
2022-11-12T17:41:14.864Z,0.05
2022-11-12T17:43:45.804Z,0.05
2022-11-12T17:46:16.286Z,0.05
2022-11-12T17:48:46.700Z,0.06
2022-11-12T17:51:16.897Z,0.05
2022-11-12T17:53:47.045Z,0.05
2022-11-12T17:56:17.946Z,0.05
2022-11-12T17:58:48.798Z,0.05
2022-11-12T18:01:19.480Z,0.05
2022-11-12T18:03:50.067Z,0.05
2022-11-12T18:06:20.395Z,0.04
2022-11-12T18:08:50.571Z,0.05
2022-11-12T18:11:21.155Z,0.05
2022-11-12T18:13:51.531Z,0.05
2022-11-12T18:16:21.807Z,0.05
2022-11-12T18:18:52.313Z,0.05
2022-11-12T18:21:22.372Z,0.05
2022-11-12T18:23:53.012Z,0.04
2022-11-12T18:26:23.097Z,0.04
2022-11-12T18:28:53.115Z,0.04
2022-11-12T18:31:23.773Z,0.05
2022-11-12T18:33:54.044Z,0.05
2022-11-12T18:36:24.804Z,0.05
2022-11-12T18:38:55.079Z,0.05
2022-11-12T18:41:25.330Z,0.05
2022-11-12T18:43:55.698Z,0.05
2022-11-12T18:46:26.392Z,0.05
2022-11-12T18:48:56.693Z,0.05
2022-11-12T18:51:27.166Z,0.05
2022-11-12T18:53:57.703Z,0.04
2022-11-12T18:56:27.995Z,0.04
2022-11-12T18:58:58.688Z,0.04
2022-11-12T19:01:28.881Z,0.04
2022-11-12T19:03:59.142Z,0.04
2022-11-12T19:06:29.510Z,0.04
2022-11-12T19:08:59.833Z,0.04
2022-11-12T19:11:29.768Z,0.04
2022-11-12T19:13:59.867Z,0.04
2022-11-12T19:16:30.609Z,0.04
2022-11-12T19:19:00.693Z,0.04
2022-11-12T19:21:31.314Z,0.04
2022-11-12T19:24:02.178Z,0.04
2022-11-12T19:26:32.701Z,0.04
2022-11-12T19:29:03.336Z,0.04
2022-11-12T19:31:33.542Z,0.04
2022-11-12T19:34:03.568Z,0.04
2022-11-12T19:36:33.967Z,0.04
2022-11-12T19:39:04.331Z,0.04
2022-11-12T19:41:34.671Z,0.04
2022-11-12T19:44:04.992Z,0.04
2022-11-12T19:46:35.436Z,0.04
2022-11-12T19:49:06.066Z,0.04
2022-11-12T19:51:36.723Z,0.04
2022-11-12T19:54:07.132Z,0.04
2022-11-12T19:56:37.586Z,0.04
2022-11-12T19:59:08.079Z,0.04
2022-11-12T20:01:38.711Z,0.04
2022-11-12T20:04:08.976Z,0.04
2022-11-12T20:06:39.615Z,0.04
2022-11-12T20:09:10.292Z,0.04
2022-11-12T20:11:40.599Z,0.04
2022-11-12T20:14:10.844Z,0.04
2022-11-12T20:16:41.114Z,0.04
2022-11-12T20:19:11.863Z,0.04
2022-11-12T20:21:41.911Z,0.04
2022-11-12T20:24:12.784Z,0.04
2022-11-12T20:26:43.290Z,0.04
2022-11-12T20:29:13.993Z,0.03
2022-11-12T20:31:44.490Z,0.04
2022-11-12T20:34:15.019Z,0.04
2022-11-12T20:36:45.849Z,0.04
2022-11-12T20:39:16.311Z,0.03
2022-11-12T20:41:46.989Z,0.03
2022-11-12T20:44:17.737Z,0.03
2022-11-12T20:46:48.139Z,0.03
2022-11-12T20:49:18.464Z,0.03
2022-11-12T20:51:48.895Z,0.03
2022-11-12T20:54:19.296Z,0.03
2022-11-12T20:56:50.037Z,0.03
2022-11-12T20:59:20.174Z,0.03
2022-11-12T21:01:50.758Z,0.03
2022-11-12T21:04:21.573Z,0.03
2022-11-12T21:06:51.994Z,0.03
2022-11-12T21:09:22.921Z,0.03
2022-11-12T21:11:53.583Z,0.03
2022-11-12T21:14:24.310Z,0.03
2022-11-12T21:16:54.508Z,0.03
2022-11-12T21:19:24.570Z,0.03
2022-11-12T21:21:55.335Z,0.03
2022-11-12T21:24:25.742Z,0.03
2022-11-12T21:26:56.651Z,0.03
2022-11-12T21:29:27.130Z,0.03
2022-11-12T21:31:57.633Z,0.03
2022-11-12T21:34:28.326Z,0.03
2022-11-12T21:36:58.795Z,0.03
2022-11-12T21:39:29.065Z,0.03
2022-11-12T21:41:59.083Z,0.03
2022-11-12T21:44:29.527Z,0.03
2022-11-12T21:47:00.215Z,0.03
2022-11-12T21:49:30.910Z,0.03
2022-11-12T21:52:01.314Z,0.03
2022-11-12T21:54:31.456Z,0.03
2022-11-12T21:57:02.201Z,0.04
2022-11-12T21:59:32.353Z,0.03
2022-11-12T22:02:02.885Z,0.03
2022-11-12T22:04:32.990Z,0.03
2022-11-12T22:07:03.889Z,0.03
2022-11-12T22:09:34.179Z,0.04
2022-11-12T22:12:04.895Z,0.04
2022-11-12T22:14:35.266Z,0.03
2022-11-12T22:17:05.998Z,0.03
2022-11-12T22:19:36.447Z,0.03
2022-11-12T22:22:07.013Z,0.03
2022-11-12T22:24:37.860Z,0.03
2022-11-12T22:27:08.058Z,0.03
2022-11-12T22:29:38.804Z,0.03
2022-11-12T22:32:09.083Z,0.03
2022-11-12T22:34:39.199Z,0.03
2022-11-12T22:37:09.715Z,0.03
2022-11-12T22:39:39.799Z,0.03
2022-11-12T22:42:10.232Z,0.03
2022-11-12T22:44:40.452Z,0.03
2022-11-12T22:47:11.281Z,0.03
2022-11-12T22:49:41.422Z,0.03
2022-11-12T22:52:11.591Z,0.03
2022-11-12T22:54:42.244Z,0.03
2022-11-12T22:57:12.758Z,0.03
2022-11-12T22:59:42.780Z,0.03
2022-11-12T23:02:12.987Z,0.03
2022-11-12T23:04:43.641Z,0.03
2022-11-12T23:07:13.634Z,0.03
2022-11-12T23:09:44.221Z,0.03
2022-11-12T23:12:15.028Z,0.03
2022-11-12T23:14:45.474Z,0.03
2022-11-12T23:17:16.183Z,0.03
2022-11-12T23:19:46.427Z,0.03
2022-11-12T23:22:17.057Z,0.03
2022-11-12T23:24:47.291Z,0.03
2022-11-12T23:27:17.996Z,0.03
2022-11-12T23:29:48.566Z,0.03
2022-11-12T23:32:19.213Z,0.03
2022-11-12T23:34:49.548Z,0.03
2022-11-12T23:37:19.569Z,0.03
2022-11-12T23:39:50.151Z,0.03
2022-11-12T23:42:20.591Z,0.03
2022-11-12T23:44:51.215Z,0.03
2022-11-12T23:47:21.911Z,0.03
2022-11-12T23:49:52.786Z,0.03
2022-11-12T23:52:22.822Z,0.03
2022-11-12T23:54:53.053Z,0.03
2022-11-12T23:57:23.765Z,0.03
2022-11-12T23:59:54.402Z,0.03
